createdAt,value
2019-02-08T00:01:44.334Z,2.58
2019-02-08T00:12:19.710Z,2.65
2019-02-08T00:17:42.334Z,2.56
2019-02-08T00:20:12.836Z,2.63
2019-02-08T00:25:22.397Z,2.57
2019-02-08T00:33:40.730Z,2.65
2019-02-08T00:36:20.598Z,2.57
2019-02-08T00:39:02.631Z,2.57
2019-02-08T00:42:04.304Z,2.63
2019-02-08T00:44:44.875Z,2.67
2019-02-08T00:47:28.925Z,2.65
2019-02-08T00:50:22.344Z,2.62
2019-02-08T00:53:15.565Z,2.65
2019-02-08T00:58:34.509Z,2.66
2019-02-08T01:01:13.648Z,2.55
2019-02-08T01:06:34.416Z,2.57
2019-02-08T01:09:05.815Z,2.61
2019-02-08T01:14:16.571Z,2.43
2019-02-08T01:16:48.984Z,2.51
2019-02-08T01:19:18.481Z,2.66
2019-02-08T01:21:50.489Z,2.71
2019-02-08T01:24:20.429Z,2.66
2019-02-08T01:27:05.854Z,2.61
2019-02-08T01:29:34.896Z,2.64
2019-02-08T01:32:10.084Z,2.58
2019-02-08T01:34:47.598Z,2.51
2019-02-08T01:37:16.665Z,2.39
2019-02-08T01:39:56.730Z,2.29
2019-02-08T01:42:35.029Z,2.24
2019-02-08T01:45:04.103Z,2.15
2019-02-08T01:50:08.857Z,2.06
2019-02-08T01:52:38.325Z,2.14
2019-02-08T01:55:08.439Z,2.10
2019-02-08T01:57:37.861Z,2.11
2019-02-08T02:00:16.397Z,2.25
2019-02-08T02:02:45.584Z,2.19
2019-02-08T02:05:19.083Z,2.32
2019-02-08T02:07:48.157Z,2.35
2019-02-08T02:10:28.915Z,2.33
2019-02-08T02:12:57.955Z,2.31
2019-02-08T02:15:27.025Z,2.24
2019-02-08T02:17:58.510Z,2.34
2019-02-08T02:20:30.279Z,2.35
2019-02-08T02:22:59.340Z,2.26
2019-02-08T02:25:31.061Z,2.21
2019-02-08T02:28:15.597Z,2.18
2019-02-08T02:30:44.980Z,2.05
2019-02-08T02:35:59.348Z,2.00
2019-02-08T02:38:32.776Z,1.99
2019-02-08T02:41:01.861Z,2.05
2019-02-08T02:43:36.684Z,2.09
2019-02-08T02:46:05.735Z,2.14
2019-02-08T02:51:11.822Z,2.11
2019-02-08T02:53:50.646Z,2.09
2019-02-08T02:56:19.687Z,2.13
2019-02-08T02:58:52.228Z,2.14
2019-02-08T03:01:34.219Z,2.24
2019-02-08T03:04:03.715Z,2.29
2019-02-08T03:06:41.048Z,2.36
2019-02-08T03:09:10.148Z,2.38
2019-02-08T03:14:12.917Z,2.40
2019-02-08T03:16:41.842Z,2.38
2019-02-08T03:19:41.019Z,2.40
2019-02-08T03:22:15.444Z,2.47
2019-02-08T03:24:43.910Z,2.47
2019-02-08T03:27:20.606Z,2.41
2019-02-08T03:29:49.581Z,2.43
2019-02-08T03:32:20.051Z,2.42
2019-02-08T03:34:48.576Z,2.47
2019-02-08T03:37:40.367Z,2.39
2019-02-08T03:40:30.165Z,2.39
2019-02-08T03:42:59.103Z,2.38
2019-02-08T03:45:45.986Z,2.42
2019-02-08T03:48:14.710Z,2.42
2019-02-08T03:51:00.382Z,2.41
2019-02-08T03:53:38.274Z,2.38
2019-02-08T03:56:07.090Z,2.37
2019-02-08T03:58:35.669Z,2.35
2019-02-08T04:01:05.170Z,2.29
2019-02-08T04:03:33.709Z,2.34
2019-02-08T04:06:06.562Z,2.33
2019-02-08T04:08:35.684Z,2.40
2019-02-08T04:11:05.530Z,2.42
2019-02-08T04:13:35.048Z,2.41
2019-02-08T04:16:10.038Z,2.42
2019-02-08T04:18:38.668Z,2.42
2019-02-08T04:21:07.244Z,2.41
2019-02-08T04:23:35.753Z,2.44
2019-02-08T04:26:08.129Z,2.44
2019-02-08T04:28:37.241Z,2.45
2019-02-08T04:31:05.987Z,2.41
2019-02-08T04:33:35.417Z,2.40
2019-02-08T04:36:06.114Z,2.42
2019-02-08T04:38:34.854Z,2.45
2019-02-08T04:41:12.985Z,2.44
2019-02-08T04:43:41.544Z,2.42
2019-02-08T04:46:26.991Z,2.36
2019-02-08T04:49:26.846Z,2.27
2019-02-08T04:52:05.453Z,2.20
2019-02-08T04:54:38.452Z,2.06
2019-02-08T04:57:26.091Z,1.93
2019-02-08T05:00:26.136Z,1.81
2019-02-08T05:03:22.901Z,1.75
2019-02-08T05:05:53.347Z,1.69
2019-02-08T05:08:26.885Z,1.72
2019-02-08T05:10:55.404Z,1.68
2019-02-08T05:13:27.851Z,1.82
2019-02-08T05:16:06.661Z,1.87
2019-02-08T05:18:35.181Z,1.95
2019-02-08T05:21:26.597Z,2.05
2019-02-08T05:24:22.226Z,2.01
2019-02-08T05:27:03.158Z,1.96
2019-02-08T05:29:31.678Z,1.94
2019-02-08T05:32:04.951Z,1.86
2019-02-08T05:34:33.465Z,1.79
2019-02-08T05:37:02.955Z,1.75
2019-02-08T05:39:32.771Z,1.71
2019-02-08T05:42:13.038Z,1.71
2019-02-08T05:44:41.542Z,1.69
2019-02-08T05:47:27.278Z,1.74
2019-02-08T05:50:03.257Z,1.63
2019-02-08T05:52:32.145Z,1.42
2019-02-08T05:55:05.315Z,1.11
2019-02-08T05:57:34.021Z,0.77
2019-02-08T06:00:12.464Z,0.55
2019-02-08T06:02:41.000Z,0.57
2019-02-08T06:05:27.199Z,0.72
2019-02-08T06:08:29.088Z,0.97
2019-02-08T06:11:01.357Z,1.11
2019-02-08T06:13:38.919Z,1.26
2019-02-08T06:16:15.829Z,1.28
2019-02-08T06:18:44.710Z,1.22
2019-02-08T06:21:20.384Z,1.13
2019-02-08T06:23:48.931Z,0.52
2019-02-08T06:26:26.766Z,0.13
2019-02-08T06:29:04.646Z,-0.13
2019-02-08T06:31:33.547Z,-0.29
2019-02-08T06:34:12.062Z,-0.39
2019-02-08T06:36:40.595Z,-0.64
2019-02-08T06:39:24.062Z,-0.71
2019-02-08T06:41:52.754Z,-0.66
2019-02-08T06:44:26.749Z,-0.58
2019-02-08T06:46:56.278Z,-0.62
2019-02-08T06:49:25.826Z,-0.65
2019-02-08T06:51:55.829Z,-0.59
2019-02-08T06:54:24.384Z,-0.02
2019-02-08T06:56:53.610Z,0.48
2019-02-08T06:59:23.896Z,0.92
2019-02-08T07:01:55.817Z,1.18
2019-02-08T07:04:26.216Z,1.23
2019-02-08T07:06:58.169Z,1.24
2019-02-08T07:09:27.713Z,1.20
2019-02-08T07:12:10.607Z,1.10
2019-02-08T07:14:42.580Z,0.88
2019-02-08T07:17:13.407Z,0.87
2019-02-08T07:19:52.804Z,0.98
2019-02-08T07:22:29.766Z,1.15
2019-02-08T07:25:04.513Z,1.15
2019-02-08T07:27:41.210Z,1.08
2019-02-08T07:30:10.846Z,1.05
2019-02-08T07:38:32.538Z,1.30
2019-02-08T07:41:04.946Z,1.36
2019-02-08T07:43:46.927Z,1.43
2019-02-08T07:49:13.833Z,1.56
2019-02-08T07:51:55.529Z,1.62
2019-02-08T07:54:27.144Z,1.77
2019-02-08T07:56:58.525Z,1.86
2019-02-08T07:59:37.914Z,1.95
2019-02-08T08:02:06.800Z,2.00
2019-02-08T08:04:47.168Z,2.09
2019-02-08T08:10:14.710Z,2.29
2019-02-08T08:12:52.420Z,2.28
2019-02-08T08:15:24.295Z,2.33
2019-02-08T08:18:02.725Z,2.38
2019-02-08T08:20:36.098Z,2.45
2019-02-08T08:23:08.121Z,2.49
2019-02-08T08:25:53.557Z,2.57
2019-02-08T08:28:33.978Z,2.65
2019-02-08T08:31:13.957Z,2.77
2019-02-08T08:33:43.199Z,2.86
2019-02-08T08:42:45.122Z,3.31
2019-02-08T08:45:30.249Z,3.43
2019-02-08T08:48:15.717Z,3.62
2019-02-08T08:54:08.283Z,3.95
2019-02-08T08:56:46.704Z,4.09
2019-02-08T08:59:27.102Z,4.28
2019-02-08T09:05:16.883Z,4.60
2019-02-08T09:07:57.791Z,4.76
2019-02-08T09:17:07.898Z,8.44
2019-02-08T09:22:41.288Z,9.43
2019-02-08T09:25:18.691Z,9.74
2019-02-08T09:28:06.412Z,9.23
2019-02-08T09:30:56.554Z,9.31
2019-02-08T09:42:49.167Z,13.43
2019-02-08T09:45:35.383Z,12.75
2019-02-08T09:48:14.074Z,12.15
2019-02-08T09:53:53.126Z,10.86
2019-02-08T10:08:31.273Z,10.86
2019-02-08T10:11:10.577Z,11.60
2019-02-08T10:17:12.948Z,10.85
2019-02-08T10:26:12.668Z,10.88
2019-02-08T10:31:57.009Z,11.33
2019-02-08T10:37:36.194Z,11.19
2019-02-08T10:40:07.805Z,11.52
2019-02-08T10:45:53.032Z,12.12
2019-02-08T10:48:38.635Z,12.19
2019-02-08T10:51:28.052Z,14.67
2019-02-08T10:54:07.401Z,14.76
2019-02-08T10:56:48.459Z,15.00
2019-02-08T11:02:42.905Z,14.17
2019-02-08T11:08:27.922Z,15.58
2019-02-08T11:17:08.277Z,13.14
2019-02-08T11:19:36.245Z,13.13
2019-02-08T11:22:04.782Z,14.55
2019-02-08T11:24:33.651Z,13.94
2019-02-08T11:27:05.653Z,16.48
2019-02-08T11:29:35.106Z,16.04
2019-02-08T11:32:07.301Z,14.57
2019-02-08T11:34:35.847Z,17.09
2019-02-08T11:37:04.366Z,17.13
2019-02-08T11:39:32.952Z,16.30
2019-02-08T11:42:01.562Z,18.75
2019-02-08T11:44:31.208Z,18.76
2019-02-08T11:47:00.771Z,18.45
2019-02-08T11:49:29.300Z,18.70
2019-02-08T11:51:57.818Z,20.66
2019-02-08T11:54:26.351Z,20.36
2019-02-08T11:56:55.661Z,16.94
2019-02-08T11:59:25.193Z,18.11
2019-02-08T12:01:53.717Z,19.62
2019-02-08T12:04:23.926Z,18.04
2019-02-08T12:06:55.507Z,21.64
2019-02-08T12:09:25.393Z,16.74
2019-02-08T12:11:53.886Z,20.21
2019-02-08T12:14:22.430Z,19.30
2019-02-08T12:16:59.284Z,18.29
2019-02-08T12:19:27.828Z,18.22
2019-02-08T12:21:56.450Z,19.13
2019-02-08T12:24:26.848Z,16.20
2019-02-08T12:26:55.365Z,17.53
2019-02-08T12:29:23.928Z,19.61
2019-02-08T12:31:52.454Z,17.08
2019-02-08T12:34:22.927Z,13.92
2019-02-08T12:36:53.583Z,14.16
2019-02-08T12:39:22.123Z,12.85
2019-02-08T12:41:51.666Z,12.81
2019-02-08T12:44:20.201Z,12.91
2019-02-08T12:46:49.658Z,12.34
2019-02-08T12:49:18.630Z,12.60
2019-02-08T12:51:57.366Z,12.20
2019-02-08T12:54:25.935Z,12.46
2019-02-08T12:56:54.750Z,12.17
2019-02-08T12:59:23.277Z,11.40
2019-02-08T13:01:51.829Z,12.20
2019-02-08T13:04:22.357Z,13.10
2019-02-08T13:06:50.878Z,13.57
2019-02-08T13:09:19.908Z,13.61
2019-02-08T13:11:48.442Z,13.08
2019-02-08T13:14:16.961Z,12.67
2019-02-08T13:16:45.495Z,14.04
2019-02-08T13:19:14.453Z,14.60
2019-02-08T13:21:43.775Z,13.71
2019-02-08T13:24:16.026Z,13.16
2019-02-08T13:26:44.553Z,13.73
2019-02-08T13:29:13.588Z,14.84
2019-02-08T13:31:42.151Z,18.03
2019-02-08T13:34:10.660Z,19.18
2019-02-08T13:36:46.259Z,21.58
2019-02-08T13:39:22.283Z,22.02
2019-02-08T13:42:00.013Z,21.22
2019-02-08T13:44:34.744Z,17.35
2019-02-08T13:47:05.718Z,16.72
2019-02-08T13:49:35.331Z,19.79
2019-02-08T13:52:04.604Z,19.88
2019-02-08T13:54:34.932Z,20.96
2019-02-08T13:57:06.123Z,21.33
2019-02-08T13:59:35.315Z,20.55
2019-02-08T14:02:08.591Z,21.88
2019-02-08T14:04:45.630Z,21.75
2019-02-08T14:07:22.238Z,20.45
2019-02-08T14:09:51.933Z,19.01
2019-02-08T14:12:21.958Z,18.85
2019-02-08T14:15:01.094Z,18.56
2019-02-08T14:17:31.585Z,18.94
2019-02-08T14:20:02.296Z,18.41
2019-02-08T14:22:30.809Z,19.46
2019-02-08T14:25:00.589Z,19.84
2019-02-08T14:27:30.069Z,18.66
2019-02-08T14:29:59.625Z,20.37
2019-02-08T14:32:29.048Z,17.99
2019-02-08T14:34:59.630Z,16.56
2019-02-08T14:37:28.194Z,15.55
2019-02-08T14:39:57.175Z,16.39
2019-02-08T14:42:26.318Z,15.69
2019-02-08T14:44:54.995Z,14.87
2019-02-08T14:47:30.911Z,14.31
2019-02-08T14:50:11.263Z,14.83
2019-02-08T14:52:40.279Z,13.76
2019-02-08T14:55:21.899Z,13.36
2019-02-08T14:57:54.792Z,12.84
2019-02-08T15:00:33.511Z,11.33
2019-02-08T15:03:05.017Z,11.35
2019-02-08T15:05:35.165Z,10.64
2019-02-08T15:08:07.975Z,10.52
2019-02-08T15:10:38.651Z,10.13
2019-02-08T15:13:07.958Z,9.67
2019-02-08T15:15:36.522Z,9.90
2019-02-08T15:18:05.094Z,9.20
2019-02-08T15:20:34.702Z,9.34
2019-02-08T15:23:13.237Z,9.10
2019-02-08T15:25:43.548Z,9.14
2019-02-08T15:28:19.844Z,8.66
2019-02-08T15:30:56.902Z,8.02
2019-02-08T15:33:41.118Z,7.68
2019-02-08T15:36:09.655Z,7.41
2019-02-08T15:38:44.661Z,7.26
2019-02-08T15:41:13.333Z,7.10
2019-02-08T15:43:42.002Z,6.96
2019-02-08T15:46:10.532Z,6.80
2019-02-08T15:48:42.798Z,6.53
2019-02-08T15:51:12.034Z,6.12
2019-02-08T15:53:42.523Z,5.97
2019-02-08T15:56:11.130Z,5.78
2019-02-08T15:58:42.427Z,5.48
2019-02-08T16:01:11.136Z,5.47
2019-02-08T16:03:39.726Z,5.15
2019-02-08T16:06:08.221Z,4.96
2019-02-08T16:08:45.340Z,4.73
2019-02-08T16:11:14.832Z,4.42
2019-02-08T16:13:53.016Z,4.14
2019-02-08T16:16:43.987Z,4.07
2019-02-08T16:19:21.314Z,3.85
2019-02-08T16:22:00.930Z,3.67
2019-02-08T16:24:51.589Z,3.68
2019-02-08T16:27:21.914Z,3.58
2019-02-08T16:29:53.654Z,3.42
2019-02-08T16:32:26.419Z,3.33
2019-02-08T16:35:00.432Z,3.30
2019-02-08T16:37:32.606Z,3.31
2019-02-08T16:40:01.174Z,3.20
2019-02-08T16:42:34.133Z,2.93
2019-02-08T16:45:03.698Z,2.86
2019-02-08T16:47:35.968Z,2.62
2019-02-08T16:50:06.987Z,2.67
2019-02-08T16:52:39.279Z,2.61
2019-02-08T16:55:07.887Z,2.57
2019-02-08T16:58:04.738Z,2.09
2019-02-08T17:00:38.913Z,1.76
2019-02-08T17:03:08.625Z,1.73
2019-02-08T17:05:37.179Z,1.80
2019-02-08T17:08:05.691Z,1.86
2019-02-08T17:10:38.927Z,1.91
2019-02-08T17:13:07.612Z,1.87
2019-02-08T17:15:39.059Z,1.85
2019-02-08T17:18:07.566Z,1.96
2019-02-08T17:20:59.371Z,1.82
2019-02-08T17:24:00.426Z,1.74
2019-02-08T17:26:43.645Z,1.74
2019-02-08T17:29:24.062Z,1.72
2019-02-08T17:31:57.630Z,1.72
2019-02-08T17:34:26.287Z,1.75
2019-02-08T17:37:01.310Z,1.72
2019-02-08T17:39:30.601Z,1.70
2019-02-08T17:42:16.660Z,1.71
2019-02-08T17:45:16.762Z,1.72
2019-02-08T17:48:16.763Z,1.68
2019-02-08T17:51:01.632Z,1.67
2019-02-08T17:53:39.247Z,1.60
2019-02-08T17:56:08.235Z,1.56
2019-02-08T17:58:43.655Z,1.55
2019-02-08T18:01:12.186Z,1.25
2019-02-08T18:03:57.834Z,1.20
2019-02-08T18:06:33.888Z,1.23
2019-02-08T18:09:02.962Z,1.05
2019-02-08T18:11:48.520Z,0.84
2019-02-08T18:14:17.038Z,0.71
2019-02-08T18:16:53.443Z,0.71
2019-02-08T18:19:38.951Z,0.65
2019-02-08T18:22:07.995Z,0.71
2019-02-08T18:24:51.508Z,0.73
2019-02-08T18:27:30.935Z,0.55
2019-02-08T18:29:59.466Z,0.58
2019-02-08T18:32:54.620Z,0.69
2019-02-08T18:35:28.849Z,0.53
2019-02-08T18:37:58.294Z,0.49
2019-02-08T18:40:48.979Z,0.48
2019-02-08T18:43:17.536Z,0.47
2019-02-08T18:45:47.984Z,0.40
2019-02-08T18:48:17.371Z,0.40
2019-02-08T18:50:45.913Z,0.34
2019-02-08T18:53:29.551Z,0.26
2019-02-08T18:55:58.082Z,0.18
2019-02-08T18:58:26.602Z,0.18
2019-02-08T19:01:12.876Z,0.25
2019-02-08T19:03:51.610Z,0.23
2019-02-08T19:06:21.039Z,0.22
2019-02-08T19:08:53.520Z,0.12
2019-02-08T19:11:22.024Z,0.13
2019-02-08T19:14:12.270Z,0.22
2019-02-08T19:16:47.837Z,0.37
2019-02-08T19:19:16.653Z,0.27
2019-02-08T19:22:04.037Z,0.29
2019-02-08T19:24:34.574Z,0.33
2019-02-08T19:27:07.191Z,0.31
2019-02-08T19:29:37.653Z,-0.12
2019-02-08T19:32:13.124Z,-0.26
2019-02-08T19:34:42.656Z,-0.29
2019-02-08T19:37:12.410Z,-0.29
2019-02-08T19:39:48.935Z,-0.24
2019-02-08T19:42:17.450Z,-0.32
2019-02-08T19:45:03.576Z,-0.34
2019-02-08T19:47:49.584Z,-0.34
2019-02-08T19:50:20.814Z,-0.33
2019-02-08T19:52:49.994Z,-0.29
2019-02-08T19:55:18.569Z,-0.27
2019-02-08T19:57:54.895Z,-0.20
2019-02-08T20:00:24.082Z,-0.22
2019-02-08T20:02:52.609Z,-0.28
2019-02-08T20:05:22.568Z,-0.25
2019-02-08T20:07:58.852Z,-0.12
2019-02-08T20:10:32.848Z,-0.17
2019-02-08T20:13:12.154Z,-0.22
2019-02-08T20:16:04.751Z,-0.25
2019-02-08T20:18:33.801Z,-0.22
2019-02-08T20:21:11.676Z,-0.23
2019-02-08T20:23:59.017Z,-0.21
2019-02-08T20:26:27.539Z,-0.29
2019-02-08T20:29:11.669Z,-0.29
2019-02-08T20:32:11.594Z,-0.43
2019-02-08T20:34:53.582Z,-0.47
2019-02-08T20:37:22.112Z,-0.48
2019-02-08T20:39:55.336Z,-0.41
2019-02-08T20:42:23.882Z,-0.30
2019-02-08T20:45:09.847Z,-0.21
2019-02-08T20:47:55.446Z,-0.04
2019-02-08T20:50:23.979Z,0.07
2019-02-08T20:52:53.641Z,0.04
2019-02-08T20:55:22.189Z,-0.01
2019-02-08T20:58:03.379Z,0.02
2019-02-08T21:00:43.677Z,0.05
2019-02-08T21:03:12.851Z,-0.02
2019-02-08T21:05:49.775Z,0.02
2019-02-08T21:08:18.355Z,0.07
2019-02-08T21:10:49.280Z,0.07
2019-02-08T21:13:24.485Z,0.03
2019-02-08T21:15:53.350Z,-0.07
2019-02-08T21:18:36.528Z,-0.05
2019-02-08T21:21:09.727Z,0.10
2019-02-08T21:23:39.110Z,0.55
2019-02-08T21:26:25.958Z,0.64
2019-02-08T21:28:57.904Z,0.68
2019-02-08T21:31:34.649Z,0.69
2019-02-08T21:34:12.592Z,0.70
2019-02-08T21:36:47.216Z,0.60
2019-02-08T21:39:39.424Z,0.58
2019-02-08T21:42:19.068Z,0.63
2019-02-08T21:44:47.683Z,0.60
2019-02-08T21:47:16.229Z,0.70
2019-02-08T21:49:45.464Z,0.76
2019-02-08T21:52:36.807Z,0.76
2019-02-08T21:55:07.510Z,0.84
2019-02-08T21:57:44.023Z,0.83
2019-02-08T22:00:29.111Z,0.82
2019-02-08T22:03:02.820Z,0.87
2019-02-08T22:05:37.655Z,0.98
2019-02-08T22:08:29.453Z,0.95
2019-02-08T22:11:06.961Z,0.82
2019-02-08T22:13:36.554Z,0.79
2019-02-08T22:16:19.543Z,0.86
2019-02-08T22:18:48.365Z,0.81
2019-02-08T22:21:30.650Z,0.77
2019-02-08T22:24:03.394Z,0.70
2019-02-08T22:26:36.218Z,0.57
2019-02-08T22:29:19.710Z,0.15
2019-02-08T22:31:48.246Z,-0.03
2019-02-08T22:34:30.443Z,0.05
2019-02-08T22:37:00.974Z,0.24
2019-02-08T22:39:37.096Z,0.39
2019-02-08T22:42:19.971Z,0.39
2019-02-08T22:44:48.678Z,-0.03
2019-02-08T22:47:27.338Z,-0.29
2019-02-08T22:50:03.060Z,-0.44
2019-02-08T22:52:31.584Z,-0.53
2019-02-08T22:55:17.727Z,-0.67
2019-02-08T22:57:50.326Z,-0.78
2019-02-08T23:00:30.644Z,-0.84
2019-02-08T23:03:02.805Z,-0.91
2019-02-08T23:05:31.501Z,-0.63
2019-02-08T23:08:15.609Z,-0.50
2019-02-08T23:10:54.087Z,-0.28
2019-02-08T23:13:22.612Z,-0.04
2019-02-08T23:15:52.061Z,-0.29
2019-02-08T23:18:20.594Z,-0.18
2019-02-08T23:21:05.004Z,0.07
2019-02-08T23:23:56.991Z,0.13
2019-02-08T23:26:25.506Z,0.00
2019-02-08T23:28:57.798Z,-0.06
2019-02-08T23:31:26.321Z,-0.30
2019-02-08T23:34:02.180Z,-0.16
2019-02-08T23:36:30.734Z,0.17
2019-02-08T23:39:12.954Z,0.36
2019-02-08T23:41:46.802Z,0.45
2019-02-08T23:44:15.318Z,0.74
2019-02-08T23:46:53.356Z,0.88
2019-02-08T23:49:22.021Z,0.73
2019-02-08T23:52:12.648Z,0.58
2019-02-08T23:54:41.143Z,0.66
2019-02-08T23:57:13.251Z,0.59
2019-02-08T23:59:46.090Z,0.68
